Time;durP1;ratioP1;P1;durP2;ratioP2;P2;SDS_P1;SDS_P2;PMS_P1;PMS_P2;Temp;Humidity;BMP_temperature;BMP_pressure;BME280_temperature;BME280_humidity;BME280_pressure;Samples;Min_cycle;Max_cycle;Signal;HPM_P1;HPM_P2
2023/11/23 00:00:59;;;;;;;2.90;2.70;;;;;;;0.84;63.45;100281.98;108457;1251;73693;-59
2023/11/23 00:03:26;;;;;;;2.90;2.60;;;;;;;0.88;63.22;100273.20;108392;1252;69167;-59
2023/11/23 00:05:57;;;;;;;4.30;3.00;;;;;;;0.90;63.41;100271.82;108348;1253;72650;-59
2023/11/23 00:08:26;;;;;;;3.30;3.00;;;;;;;0.86;63.33;100269.90;108472;1250;60176;-60
2023/11/23 00:10:54;;;;;;;3.10;2.80;;;;;;;0.84;62.88;100276.80;108319;1253;60667;-59
2023/11/23 00:13:22;;;;;;;;;;;;;;;0.83;62.62;100277.98;108037;1253;72970;-59
2023/11/23 00:15:49;;;;;;;5.00;3.00;;;;;;;0.78;62.07;100271.74;108387;1251;69194;-59
2023/11/23 00:18:17;;;;;;;3.80;2.60;;;;;;;0.75;61.66;100276.04;108453;1251;72539;-59
2023/11/23 00:20:45;;;;;;;2.70;2.30;;;;;;;0.70;61.43;100276.36;108447;1251;60702;-59
2023/11/23 00:23:18;;;;;;;3.40;2.60;;;;;;;0.66;61.15;100274.77;108393;1250;59791;-59
2023/11/23 00:25:49;;;;;;;3.20;2.40;;;;;;;0.68;61.74;100274.78;108428;1252;73629;-59
2023/11/23 00:28:16;;;;;;;3.30;2.50;;;;;;;0.62;60.36;100279.23;108420;1252;70349;-59
2023/11/23 00:30:44;;;;;;;2.10;1.90;;;;;;;0.57;60.55;100279.87;108431;1251;72348;-59
2023/11/23 00:33:14;;;;;;;2.90;2.40;;;;;;;0.55;60.98;100275.02;108403;1251;60709;-59
2023/11/23 00:35:47;;;;;;;3.20;2.90;;;;;;;0.54;60.56;100265.70;108437;1253;59790;-59
2023/11/23 00:38:34;;;;;;;2.50;2.30;;;;;;;0.48;60.28;100266.52;108379;1250;74107;-59
2023/11/23 00:41:01;;;;;;;2.40;2.10;;;;;;;0.44;60.19;100260.79;108389;1252;69193;-59
2023/11/23 00:43:37;;;;;;;3.10;2.40;;;;;;;0.50;60.26;100251.71;108416;1251;73439;-58
2023/11/23 00:46:05;;;;;;;2.70;2.50;;;;;;;0.51;60.07;100250.86;108426;1251;60308;-60
2023/11/23 00:48:33;;;;;;;4.00;2.30;;;;;;;0.50;60.03;100241.17;108470;1251;58880;-58
2023/11/23 00:51:02;;;;;;;3.20;2.80;;;;;;;0.51;59.79;100239.46;108406;1252;73942;-59
2023/11/23 00:53:38;;;;;;;2.80;2.40;;;;;;;0.52;59.82;100237.91;108387;1252;68721;-59
2023/11/23 00:56:06;;;;;;;;;;;;;;;0.53;59.80;100231.55;108416;1250;72411;-61
2023/11/23 00:58:36;;;;;;;3.20;2.20;;;;;;;0.51;59.26;100233.95;108431;1253;58946;-58
2023/11/23 01:01:03;;;;;;;;;;;;;;;0.49;59.45;100234.61;108510;1252;59845;-59
2023/11/23 01:03:32;;;;;;;3.40;2.50;;;;;;;0.44;59.12;100229.75;108151;1251;74493;-59
2023/11/23 01:06:05;;;;;;;3.50;2.50;;;;;;;0.41;59.25;100228.86;108454;1251;69333;-60
2023/11/23 01:08:34;;;;;;;2.90;2.60;;;;;;;0.33;59.24;100225.86;108415;1252;72276;-59
2023/11/23 01:11:02;;;;;;;;;;;;;;;0.26;59.24;100225.65;108445;1253;59859;-59
2023/11/23 01:13:30;;;;;;;5.00;2.80;;;;;;;0.21;59.12;100226.45;108057;1251;59582;-59
2023/11/23 01:16:02;;;;;;;2.70;2.50;;;;;;;0.17;59.36;100225.21;108462;1251;73811;-60
2023/11/23 01:18:30;;;;;;;2.80;2.60;;;;;;;0.15;59.28;100222.96;108420;1252;69166;-59
2023/11/23 01:20:58;;;;;;;;;;;;;;;0.15;59.21;100223.47;108423;1251;71178;-59
2023/11/23 01:23:26;;;;;;;2.70;2.20;;;;;;;0.11;58.99;100213.27;108158;1251;58758;-59
2023/11/23 01:25:53;;;;;;;;;;;;;;;0.07;59.22;100209.60;108451;1251;59443;-60
2023/11/23 01:28:24;;;;;;;2.50;2.30;;;;;;;0.04;58.89;100203.55;108419;1252;74666;-59
2023/11/23 01:30:54;;;;;;;2.80;2.50;;;;;;;-0.00;59.23;100198.52;108404;1252;69181;-59
2023/11/23 01:33:22;;;;;;;2.80;2.50;;;;;;;-0.05;59.13;100194.86;108299;1251;72325;-59
2023/11/23 01:35:51;;;;;;;3.70;2.60;;;;;;;-0.11;59.32;100187.05;108383;1251;60864;-60
2023/11/23 01:38:18;;;;;;;4.90;3.10;;;;;;;-0.10;59.50;100178.77;108470;1252;58918;-59
2023/11/23 01:40:46;;;;;;;3.00;2.70;;;;;;;-0.03;59.32;100175.39;108418;1252;74111;-60
2023/11/23 01:43:14;;;;;;;4.40;2.80;;;;;;;-0.02;58.95;100175.58;108308;1254;69093;-60
2023/11/23 01:45:49;;;;;;;4.90;3.30;;;;;;;-0.03;58.65;100178.15;108464;1252;71526;-59
2023/11/23 01:48:17;;;;;;;4.80;3.10;;;;;;;-0.05;58.31;100175.90;108076;1253;59854;-60
2023/11/23 01:50:57;;;;;;;3.10;2.80;;;;;;;-0.02;58.77;100184.20;108104;1251;59697;-60
2023/11/23 01:53:26;;;;;;;3.70;2.80;;;;;;;-0.03;58.77;100187.11;108352;1253;75041;-60
2023/11/23 01:55:53;;;;;;;;;;;;;;;-0.09;58.87;100181.89;108480;1250;69580;-59
2023/11/23 01:58:21;;;;;;;3.40;2.90;;;;;;;-0.14;59.03;100172.36;108097;1252;72415;-59
2023/11/23 02:00:50;;;;;;;3.80;3.00;;;;;;;-0.17;59.04;100171.14;108426;1251;59822;-61
2023/11/23 02:03:19;;;;;;;2.90;2.50;;;;;;;-0.21;59.45;100168.34;108427;1251;59777;-59
2023/11/23 02:05:49;;;;;;;3.40;2.80;;;;;;;-0.25;59.47;100164.16;108419;1251;73568;-60
2023/11/23 02:08:22;;;;;;;3.10;2.50;;;;;;;-0.28;59.56;100162.24;108418;1251;69598;-58
2023/11/23 02:11:01;;;;;;;3.20;2.70;;;;;;;-0.31;59.24;100169.44;108462;1253;72821;-59
2023/11/23 02:13:33;;;;;;;3.90;3.00;;;;;;;-0.32;59.54;100167.02;108021;1252;60705;-59
2023/11/23 02:16:01;;;;;;;3.70;3.10;;;;;;;-0.29;59.36;100160.52;108466;1252;60326;-60
2023/11/23 02:18:34;;;;;;;;;;;;;;;-0.31;59.47;100140.52;108459;1251;73614;-60
2023/11/23 02:21:04;;;;;;;3.00;2.60;;;;;;;-0.31;58.92;100152.38;108444;1251;69241;-60
2023/11/23 02:23:44;;;;;;;3.90;2.80;;;;;;;-0.31;59.54;100158.07;108477;1251;72459;-59
2023/11/23 02:26:12;;;;;;;;;;;;;;;-0.32;59.36;100151.35;108491;1254;59759;-58
2023/11/23 02:28:39;;;;;;;4.20;2.80;;;;;;;-0.35;59.64;100151.65;108428;1251;58525;-59
2023/11/23 02:31:25;;;;;;;3.80;2.90;;;;;;;-0.37;59.83;100139.94;108452;1251;73964;-64
2023/11/23 02:33:52;;;;;;;3.20;2.90;;;;;;;-0.39;59.56;100145.60;108387;1257;68492;-64
2023/11/23 02:36:28;;;;;;;5.50;3.70;;;;;;;-0.41;59.87;100140.06;108130;1252;71230;-64
2023/11/23 02:38:56;;;;;;;3.40;3.10;;;;;;;-0.42;60.01;100138.17;108358;1254;60764;-65
2023/11/23 02:41:47;;;;;;;5.00;3.70;;;;;;;-0.45;60.05;100136.92;108354;1256;59231;-59
2023/11/23 02:44:15;;;;;;;;;;;;;;;-0.43;60.71;100136.95;108466;1252;74325;-59
2023/11/23 02:46:43;;;;;;;4.00;3.60;;;;;;;-0.37;61.10;100134.42;108133;1251;70132;-60
2023/11/23 02:49:10;;;;;;;4.00;3.20;;;;;;;-0.37;61.39;100137.34;108451;1251;72907;-58
2023/11/23 02:51:38;;;;;;;4.10;3.60;;;;;;;-0.38;61.25;100131.48;108414;1250;59741;-59
2023/11/23 02:54:06;;;;;;;4.70;3.50;;;;;;;-0.37;61.07;100132.70;108472;1252;59705;-58
2023/11/23 02:56:36;;;;;;;4.40;3.90;;;;;;;-0.38;60.97;100131.65;108395;1251;73603;-57
2023/11/23 02:59:04;;;;;;;4.70;3.70;;;;;;;-0.38;60.80;100131.31;108416;1253;68578;-57
2023/11/23 03:01:32;;;;;;;4.90;3.70;;;;;;;-0.37;60.85;100128.91;108388;1252;72586;-59
2023/11/23 03:04:04;;;;;;;3.80;3.40;;;;;;;-0.29;60.99;100121.74;108430;1253;59860;-60
2023/11/23 03:06:43;;;;;;;3.90;3.30;;;;;;;-0.19;60.83;100124.41;108420;1253;59261;-58
2023/11/23 03:09:10;;;;;;;4.00;3.40;;;;;;;-0.15;60.75;100127.04;108489;1252;73588;-58
2023/11/23 03:11:40;;;;;;;4.40;3.70;;;;;;;-0.12;61.10;100125.51;108130;1253;69243;-58
2023/11/23 03:14:12;;;;;;;3.90;3.50;;;;;;;-0.12;60.80;100124.98;108438;1253;71971;-59
2023/11/23 03:16:41;;;;;;;4.60;3.70;;;;;;;-0.12;60.90;100120.52;108392;1252;59978;-58
2023/11/23 03:19:11;;;;;;;3.50;3.20;;;;;;;-0.16;61.35;100113.41;108333;1253;60341;-58
2023/11/23 03:21:42;;;;;;;3.80;3.50;;;;;;;-0.18;61.30;100111.85;108426;1253;74063;-58
2023/11/23 03:24:13;;;;;;;5.40;4.00;;;;;;;-0.18;61.24;100097.20;108431;1253;68171;-59
2023/11/23 03:26:42;;;;;;;4.20;3.40;;;;;;;-0.13;61.01;100093.10;108402;1253;71252;-63
2023/11/23 03:29:23;;;;;;;;;;;;;;;;;;;;;
2023/11/23 03:32:07;;;;;;;4.70;3.90;;;;;;;-0.09;60.84;100093.66;107967;1251;58817;-59
2023/11/23 03:34:42;;;;;;;4.00;3.50;;;;;;;-0.14;60.85;100092.73;108400;1252;73659;-58
2023/11/23 03:37:13;;;;;;;5.40;3.30;;;;;;;-0.24;61.13;100093.19;108379;1252;69146;-59
2023/11/23 03:39:57;;;;;;;3.50;3.10;;;;;;;-0.23;60.79;100086.48;108352;1252;72754;-59
2023/11/23 03:42:25;;;;;;;3.80;3.40;;;;;;;-0.21;61.17;100074.77;108386;1253;58859;-59
2023/11/23 03:45:03;;;;;;;3.70;3.40;;;;;;;-0.17;61.09;100071.70;108392;1253;58807;-59
2023/11/23 03:47:31;;;;;;;4.20;3.80;;;;;;;-0.15;61.19;100063.29;108379;1252;73721;-59
2023/11/23 03:49:59;;;;;;;4.30;3.30;;;;;;;-0.17;61.16;100055.34;108372;1251;68075;-60
2023/11/23 03:52:29;;;;;;;4.40;3.90;;;;;;;-0.14;61.46;100041.58;108466;1253;72855;-59
2023/11/23 03:54:58;;;;;;;;;;;;;;;-0.06;61.58;100025.08;108519;1252;60816;-59
2023/11/23 03:57:25;;;;;;;3.50;3.20;;;;;;;-0.03;61.96;100031.13;108377;1253;60809;-58
2023/11/23 03:59:53;;;;;;;3.90;3.40;;;;;;;-0.04;62.06;100024.76;108395;1253;72452;-59
2023/11/23 04:02:24;;;;;;;5.20;3.70;;;;;;;-0.05;61.91;100022.15;108391;1256;71131;-57
2023/11/23 04:04:51;;;;;;;;;;;;;;;-0.06;62.19;100020.77;108431;1253;72397;-59
2023/11/23 04:07:19;;;;;;;4.10;3.70;;;;;;;-0.08;62.41;100012.66;108428;1253;58731;-58
2023/11/23 04:09:52;;;;;;;4.30;3.80;;;;;;;-0.06;62.32;100003.38;108382;1254;58812;-59
2023/11/23 04:12:19;;;;;;;4.80;4.40;;;;;;;-0.02;62.19;100001.14;108386;1253;73769;-60
2023/11/23 04:14:47;;;;;;;4.10;3.70;;;;;;;-0.03;62.10;99996.48;108300;1253;70177;-59
2023/11/23 04:17:14;;;;;;;;;;;;;;;-0.02;62.35;99997.36;108347;1253;72360;-59
2023/11/23 04:19:46;;;;;;;4.50;3.50;;;;;;;0.06;62.57;99997.23;108358;1254;59830;-58
2023/11/23 04:22:14;;;;;;;;;;;;;;;0.14;62.34;99986.94;108421;1252;59673;-60
2023/11/23 04:24:47;;;;;;;3.60;3.30;;;;;;;0.18;62.19;99983.33;108385;1257;73571;-59
2023/11/23 04:27:33;;;;;;;6.80;3.90;;;;;;;0.18;62.11;99986.27;108389;1253;68059;-57
2023/11/23 04:30:15;;;;;;;4.40;3.80;;;;;;;0.16;62.22;99991.25;108340;1253;72507;-65
2023/11/23 04:32:43;;;;;;;5.70;4.00;;;;;;;0.13;62.67;99996.23;108371;1254;60228;-65
2023/11/23 04:35:11;;;;;;;;;;;;;;;0.09;62.50;99996.04;108445;1253;60254;-66
2023/11/23 04:37:46;;;;;;;5.50;4.00;;;;;;;0.07;62.49;99982.06;108307;1252;73558;-64
2023/11/23 04:40:15;;;;;;;7.00;4.60;;;;;;;0.04;62.44;99967.05;108413;1253;69185;-65
2023/11/23 04:42:43;;;;;;;5.20;3.80;;;;;;;-0.01;62.86;99961.52;108434;1253;71340;-65
2023/11/23 04:45:11;;;;;;;4.90;4.40;;;;;;;-0.06;62.80;99958.39;108447;1253;59958;-65
2023/11/23 04:47:52;;;;;;;;;;;;;;;;;;;;;
2023/11/23 04:50:20;;;;;;;5.50;4.70;;;;;;;-0.13;63.29;99962.31;108314;1254;74061;-59
2023/11/23 04:52:49;;;;;;;5.10;4.30;;;;;;;-0.13;63.57;99951.63;108451;1252;68348;-64
2023/11/23 04:55:17;;;;;;;4.00;3.70;;;;;;;-0.03;63.54;99962.53;108452;1253;72453;-65
2023/11/23 04:57:55;;;;;;;5.50;4.90;;;;;;;-0.10;63.49;99970.60;108358;1252;59741;-64
2023/11/23 05:00:24;;;;;;;5.80;4.70;;;;;;;-0.12;63.76;99973.00;108304;1251;60580;-65
2023/11/23 05:03:02;;;;;;;4.80;4.20;;;;;;;-0.11;63.71;99975.44;108455;1254;73564;-65
2023/11/23 05:05:50;;;;;;;;;;;;;;;;;;;;;
2023/11/23 05:08:21;;;;;;;3.80;3.50;;;;;;;-0.00;64.09;99966.70;108373;1257;73396;-65
2023/11/23 05:10:53;;;;;;;5.20;4.40;;;;;;;0.02;63.76;99964.45;108349;1257;59841;-64
2023/11/23 05:13:20;;;;;;;5.10;4.40;;;;;;;0.05;63.87;99961.89;108155;1251;294810;-65
2023/11/23 05:16:34;;;;;;;6.30;4.50;;;;;;;-0.47;66.26;99951.88;101597;1295;601868;-64
2023/11/23 05:19:05;;;;;;;5.10;4.50;;;;;;;0.02;64.50;99939.81;104196;1266;59867;-62
2023/11/23 05:21:35;;;;;;;5.50;5.00;;;;;;;0.06;64.30;99936.90;103812;1269;59707;-66
2023/11/23 05:24:08;;;;;;;6.20;4.80;;;;;;;0.11;63.70;99924.52;103728;1269;72065;-66
2023/11/23 05:26:38;;;;;;;5.20;4.70;;;;;;;0.14;63.76;99914.87;103821;1280;69287;-66
2023/11/23 05:29:06;;;;;;;4.80;4.20;;;;;;;0.11;63.49;99912.63;103521;1271;326815;-65
2023/11/23 05:31:33;;;;;;;5.30;4.20;;;;;;;0.09;63.45;99904.85;104181;1268;59337;-65
2023/11/23 05:34:02;;;;;;;4.40;4.00;;;;;;;0.11;63.23;99903.82;104061;1263;59486;-65
2023/11/23 05:36:30;;;;;;;8.30;4.40;;;;;;;0.10;63.38;99901.75;104065;1269;72050;-62
2023/11/23 05:38:57;;;;;;;;;;;;;;;0.10;63.46;99900.03;104240;1264;68484;-63
2023/11/23 05:41:35;;;;;;;4.70;4.20;;;;;;;0.14;63.76;99891.59;106621;1260;72343;-65
2023/11/23 05:44:04;;;;;;;;;;;;;;;0.19;64.16;99885.58;107234;1259;62066;-67
2023/11/23 05:46:31;;;;;;;5.50;4.90;;;;;;;0.26;64.00;99879.57;106770;1260;61152;-63
2023/11/23 05:48:59;;;;;;;;;;;;;;;0.29;63.87;99884.40;107439;1258;72946;-63
2023/11/23 05:51:28;;;;;;;4.80;4.10;;;;;;;0.29;64.08;99882.34;106358;1262;69236;-63
2023/11/23 05:53:55;;;;;;;5.80;4.80;;;;;;;0.32;63.77;99881.32;104285;1261;72945;-63
2023/11/23 05:56:26;;;;;;;4.50;4.10;;;;;;;0.31;63.64;99877.69;104323;1262;59795;-64
2023/11/23 05:58:59;;;;;;;4.90;4.40;;;;;;;0.24;63.71;99880.42;103833;1261;59762;-63
2023/11/23 06:01:34;;;;;;;;;;;;;;;0.27;63.81;99872.16;103823;1264;72937;-63
2023/11/23 06:04:04;;;;;;;5.30;4.60;;;;;;;0.25;63.64;99869.05;103978;1263;69076;-63
2023/11/23 06:06:34;;;;;;;4.60;4.20;;;;;;;0.20;63.37;99863.86;104017;1276;73489;-63
2023/11/23 06:09:15;;;;;;;5.00;4.30;;;;;;;0.14;63.41;99850.58;104028;1261;59880;-63
2023/11/23 06:11:51;;;;;;;5.30;4.80;;;;;;;0.16;63.38;99845.74;103881;1273;60218;-62
2023/11/23 06:14:21;;;;;;;7.90;5.00;;;;;;;0.09;63.57;99846.42;103876;1265;71628;-63
2023/11/23 06:16:54;;;;;;;4.90;4.40;;;;;;;0.06;63.15;99838.65;104245;1266;68717;-64
2023/11/23 06:19:22;;;;;;;5.70;5.10;;;;;;;0.08;63.58;99833.66;103922;1261;72798;-62
2023/11/23 06:21:50;;;;;;;6.80;5.00;;;;;;;0.08;63.38;99831.92;103968;1264;59850;-62
2023/11/23 06:24:17;;;;;;;6.10;5.40;;;;;;;0.10;63.30;99828.15;104737;1259;59896;-63
2023/11/23 06:26:45;;;;;;;;;;;;;;;0.12;63.18;99821.61;104346;1264;72923;-64
2023/11/23 06:29:16;;;;;;;4.80;4.30;;;;;;;0.11;63.27;99809.52;104019;1262;69161;-65
2023/11/23 06:31:44;;;;;;;6.30;4.90;;;;;;;0.10;63.32;99807.13;104052;1262;72422;-64
2023/11/23 06:34:26;;;;;;;6.80;5.00;;;;;;;0.11;64.41;99799.70;104192;1268;62350;-64
2023/11/23 06:37:01;;;;;;;5.20;4.40;;;;;;;0.08;63.97;99803.15;104479;1260;59674;-62
2023/11/23 06:39:42;;;;;;;5.40;4.30;;;;;;;0.00;64.15;99802.45;104094;1259;73578;-63
2023/11/23 06:42:10;;;;;;;5.60;5.00;;;;;;;-0.00;64.69;99802.78;104236;1265;70108;-63
2023/11/23 06:44:38;;;;;;;6.70;5.20;;;;;;;-0.03;65.09;99810.55;104262;1278;75195;-64
2023/11/23 06:47:06;;;;;;;4.40;4.00;;;;;;;-0.08;64.66;99815.00;104164;1260;61392;-66
2023/11/23 06:49:35;;;;;;;5.20;4.70;;;;;;;-0.11;64.47;99806.37;104024;1267;60954;-64
2023/11/23 17:32:42;;;;;;;13.70;10.10;;;;;;;25.65;27.54;97800.56;101459;1295;601438;-59
2023/11/23 17:35:12;;;;;;;15.80;10.90;;;;;;;28.75;22.82;97793.98;103550;1273;61072;-59
2023/11/23 17:37:41;;;;;;;;;;;;;;;29.22;22.02;97791.17;103633;1266;59381;-58
2023/11/23 17:40:09;;;;;;;13.60;10.20;;;;;;;29.17;21.98;97787.13;103689;1270;74833;-58
2023/11/23 17:42:37;;;;;;;15.70;10.20;;;;;;;28.89;21.85;97776.15;104619;1254;71158;-58
2023/11/23 17:45:05;;;;;;;11.10;9.40;;;;;;;28.97;23.63;97770.63;104585;1260;73432;-60
2023/11/23 17:47:33;;;;;;;14.00;10.40;;;;;;;28.87;22.80;97759.32;104528;1257;61264;-59
2023/11/23 17:50:01;;;;;;;15.10;11.00;;;;;;;28.49;22.09;97756.30;104722;1254;60178;-59
2023/11/23 17:52:29;;;;;;;15.10;10.90;;;;;;;28.12;22.17;97749.59;104812;1257;72225;-58
2023/11/23 17:54:59;;;;;;;14.20;10.60;;;;;;;28.12;21.97;97744.77;104445;1257;68849;-59
2023/11/23 17:57:27;;;;;;;16.00;11.20;;;;;;;28.41;22.24;97732.77;104676;1254;73303;-59
2023/11/23 17:59:55;;;;;;;14.50;11.00;;;;;;;28.36;21.91;97735.03;104739;1255;61000;-59
2023/11/23 18:02:23;;;;;;;13.70;10.70;;;;;;;28.47;21.87;97735.06;105173;1254;61349;-60
2023/11/23 18:04:52;;;;;;;11.50;9.60;;;;;;;28.77;21.55;97733.41;104516;1251;74370;-61
2023/11/23 18:07:22;;;;;;;12.40;9.90;;;;;;;28.47;21.93;97731.34;104473;1271;72673;-59
2023/11/23 18:09:50;;;;;;;;;;;;;;;28.55;21.75;97722.00;104701;1255;73383;-60
2023/11/23 18:12:18;;;;;;;15.90;11.20;;;;;;;28.54;21.76;97711.12;104635;1253;61535;-59
2023/11/23 18:14:46;;;;;;;13.50;10.30;;;;;;;28.83;21.58;97699.91;104611;1256;61114;-58
2023/11/23 18:17:15;;;;;;;15.20;11.70;;;;;;;28.85;21.69;97688.74;104663;1252;73494;-59
2023/11/23 18:19:44;;;;;;;16.60;11.40;;;;;;;28.51;21.75;97695.02;105025;1253;69800;-59
2023/11/23 18:22:12;;;;;;;14.80;11.70;;;;;;;28.81;21.45;97675.82;104697;1254;72525;-59
2023/11/23 18:24:39;;;;;;;;;;;;;;;28.88;21.47;97674.02;104464;1255;63560;-59
2023/11/23 18:27:11;;;;;;;14.10;9.60;;;;;;;29.15;21.28;97672.70;105443;1256;59886;-59
2023/11/23 18:29:39;;;;;;;16.40;10.60;;;;;;;29.15;21.39;97668.73;104573;1256;73690;-61
2023/11/23 18:32:08;;;;;;;17.70;10.40;;;;;;;28.92;21.23;97665.23;104566;1265;69513;-61
2023/11/23 18:34:36;;;;;;;12.20;9.90;;;;;;;29.18;21.24;97654.37;104442;1272;72709;-59
2023/11/23 18:37:05;;;;;;;16.20;10.90;;;;;;;28.93;21.08;97646.91;104411;1266;62879;-59
2023/11/23 18:39:35;;;;;;;14.00;10.30;;;;;;;28.85;21.34;97649.98;104699;1257;59972;-57
2023/11/23 18:42:04;;;;;;;13.80;10.80;;;;;;;28.85;21.28;97653.52;104913;1256;72907;-58
2023/11/23 18:44:32;;;;;;;13.90;10.50;;;;;;;28.94;21.30;97656.61;104741;1259;71698;-60
2023/11/23 18:47:00;;;;;;;;;;;;;;;29.07;21.13;97654.46;104432;1256;73210;-59
2023/11/23 18:49:30;;;;;;;16.20;10.30;;;;;;;28.95;21.33;97651.23;104441;1251;60801;-59
2023/11/23 18:51:58;;;;;;;13.80;10.20;;;;;;;29.12;21.31;97649.14;104364;1257;59873;-59
2023/11/23 18:54:26;;;;;;;12.80;9.50;;;;;;;29.60;21.99;97646.54;104418;1256;72503;-58
2023/11/23 18:56:55;;;;;;;14.10;10.40;;;;;;;29.58;21.03;97660.50;104473;1254;70519;-58
2023/11/23 18:59:24;;;;;;;11.90;9.70;;;;;;;29.73;21.03;97652.77;104564;1269;73103;-58
2023/11/23 19:01:54;;;;;;;10.60;9.40;;;;;;;29.85;21.86;97654.02;104330;1259;63240;-59
2023/11/23 19:04:23;;;;;;;14.10;10.10;;;;;;;31.02;20.48;97642.55;104460;1258;61402;-60
2023/11/23 19:06:51;;;;;;;13.70;11.00;;;;;;;31.34;20.16;97634.92;104552;1252;73102;-59
2023/11/23 19:09:26;;;;;;;14.20;10.20;;;;;;;30.87;20.29;97627.48;104863;1254;71717;-59
2023/11/23 19:11:56;;;;;;;13.00;9.80;;;;;;;30.63;20.49;97621.52;104291;1257;75275;-57
2023/11/23 19:14:24;;;;;;;12.10;10.60;;;;;;;30.39;20.45;97613.77;104712;1259;64204;-58
2023/11/23 19:16:52;;;;;;;11.60;9.20;;;;;;;29.27;21.99;97613.46;104538;1254;62919;-58
2023/11/23 19:19:23;;;;;;;9.90;8.50;;;;;;;29.49;21.62;97605.02;105346;1254;76349;-61
2023/11/23 19:21:51;;;;;;;12.50;10.10;;;;;;;29.52;21.26;97605.69;104578;1269;71056;-60
2023/11/23 19:24:20;;;;;;;14.40;9.10;;;;;;;29.90;21.70;97605.73;104781;1257;75253;-58
2023/11/23 19:26:48;;;;;;;10.20;8.60;;;;;;;30.09;22.08;97614.08;105241;1255;62579;-57
2023/11/23 19:29:16;;;;;;;10.00;8.40;;;;;;;30.48;21.33;97600.33;104633;1252;62135;-58
2023/11/23 19:31:49;;;;;;;13.60;9.20;;;;;;;30.45;20.88;97603.14;104829;1254;72808;-58
2023/11/23 19:34:17;;;;;;;13.10;8.90;;;;;;;30.22;22.17;97598.38;104536;1259;69047;-59
2023/11/23 19:36:46;;;;;;;16.10;9.90;;;;;;;29.99;23.14;97592.16;104653;1256;72508;-58
2023/11/23 19:39:15;;;;;;;9.80;8.80;;;;;;;30.06;22.23;97579.14;104701;1269;63371;-60
2023/11/23 19:41:43;;;;;;;10.50;8.60;;;;;;;29.78;21.72;97570.66;104327;1257;65351;-58
2023/11/23 19:44:14;;;;;;;11.10;9.20;;;;;;;29.92;23.12;97576.80;104308;1259;74426;-58
2023/11/23 19:46:42;;;;;;;11.90;8.50;;;;;;;29.99;21.57;97573.91;104730;1257;69041;-58
2023/11/23 19:49:12;;;;;;;11.60;9.00;;;;;;;25.59;24.91;97573.39;104856;1256;73337;-58
2023/11/23 19:51:43;;;;;;;10.90;9.10;;;;;;;13.36;45.49;97626.77;104443;1264;60082;-59
2023/11/23 19:54:12;;;;;;;9.10;8.20;;;;;;;12.23;50.27;97630.69;104730;1257;59949;-59
2023/11/23 19:56:41;;;;;;;9.40;7.60;;;;;;;11.52;57.78;97625.70;104529;1256;73394;-58
2023/11/23 19:59:09;;;;;;;10.00;8.30;;;;;;;10.78;62.60;97622.66;104919;1258;72332;-59
2023/11/23 20:01:37;;;;;;;11.60;9.40;;;;;;;10.74;65.94;97611.26;104481;1254;72779;-58
2023/11/23 20:04:05;;;;;;;10.10;7.70;;;;;;;11.17;64.88;97610.38;104375;1260;60963;-60
2023/11/23 20:06:34;;;;;;;9.30;8.30;;;;;;;11.30;64.19;97597.31;104382;1259;60036;-59
2023/11/23 20:09:08;;;;;;;8.40;7.40;;;;;;;11.44;63.87;97602.16;104435;1254;72971;-59
2023/11/23 20:11:36;;;;;;;9.30;7.80;;;;;;;11.44;63.95;97604.25;104649;1257;69634;-59
2023/11/23 20:14:05;;;;;;;8.20;7.40;;;;;;;11.40;67.08;97601.08;104253;1261;73320;-59
2023/11/23 20:16:33;;;;;;;9.30;8.10;;;;;;;11.36;68.54;97595.98;104692;1257;60694;-59
2023/11/23 20:19:01;;;;;;;;;;;;;;;11.47;67.82;97584.36;104678;1256;60223;-62
2023/11/23 20:21:29;;;;;;;9.80;7.90;;;;;;;11.61;65.76;97571.76;104858;1254;75404;-64
2023/11/23 20:23:57;;;;;;;;;;;;;;;11.24;66.94;97573.55;104507;1257;69575;-63
2023/11/23 20:26:24;;;;;;;;;;;;;;;11.31;69.19;97567.58;104978;1257;72450;-63
2023/11/23 20:28:52;;;;;;;9.50;7.80;;;;;;;11.50;68.35;97563.77;104591;1258;63995;-65
2023/11/23 20:31:20;;;;;;;;;;;;;;;11.73;66.25;97561.66;104872;1257;60209;-63
2023/11/23 20:33:47;;;;;;;;;;;;;;;11.76;65.32;97546.80;104628;1259;72845;-63
2023/11/23 20:36:15;;;;;;;8.50;7.00;;;;;;;11.76;64.89;97539.45;106847;1254;69606;-64
2023/11/23 20:38:44;;;;;;;;;;;;;;;11.67;65.27;97535.42;107018;1257;72919;-64
2023/11/23 20:41:13;;;;;;;8.10;7.20;;;;;;;11.28;67.35;97547.48;105669;1252;60814;-66
2023/11/23 20:43:41;;;;;;;11.40;8.50;;;;;;;11.41;67.24;97531.58;105314;1254;59849;-65
2023/11/23 20:46:11;;;;;;;9.10;7.50;;;;;;;11.30;68.62;97526.66;105138;1257;72891;-63
2023/11/23 20:48:40;;;;;;;10.40;7.70;;;;;;;11.14;69.30;97524.92;105637;1254;68209;-64
2023/11/23 20:51:12;;;;;;;9.20;7.20;;;;;;;11.07;69.50;97523.88;104717;1253;72633;-65
2023/11/23 20:53:40;;;;;;;9.40;7.90;;;;;;;10.99;74.75;97520.64;104964;1257;60751;-65
2023/11/23 20:56:08;;;;;;;9.80;8.40;;;;;;;11.29;86.70;97517.55;105216;1252;60248;-64
2023/11/23 20:58:37;;;;;;;8.80;7.90;;;;;;;11.28;76.71;97509.79;104356;1264;74427;-63
2023/11/23 21:01:05;;;;;;;10.10;7.80;;;;;;;11.81;71.29;97511.48;105760;1254;69208;-64
2023/11/23 21:03:34;;;;;;;7.90;6.90;;;;;;;11.33;72.77;97499.92;104564;1254;72364;-64
2023/11/23 21:06:04;;;;;;;9.10;7.40;;;;;;;11.33;72.81;97492.20;104802;1256;61204;-63
2023/11/23 21:08:32;;;;;;;9.10;7.70;;;;;;;11.52;72.33;97487.71;104587;1254;60047;-64
2023/11/23 21:10:59;;;;;;;11.90;8.20;;;;;;;11.67;70.75;97481.58;105273;1254;73566;-64
2023/11/23 21:13:27;;;;;;;8.30;7.10;;;;;;;11.64;70.35;97480.60;104855;1257;69224;-59
2023/11/23 21:15:55;;;;;;;7.80;7.00;;;;;;;11.43;71.47;97474.23;104531;1268;72912;-64
2023/11/23 21:18:23;;;;;;;12.80;7.30;;;;;;;11.38;71.57;97481.80;104586;1255;59950;-65
2023/11/23 21:20:51;;;;;;;8.30;7.40;;;;;;;11.34;75.96;97469.85;105080;1254;59763;-65
2023/11/23 21:23:20;;;;;;;;;;;;;;;11.38;72.65;97459.67;104809;1259;72809;-64
2023/11/23 21:25:47;;;;;;;9.00;7.80;;;;;;;11.36;73.82;97453.71;104293;1260;69601;-64
2023/11/23 21:28:15;;;;;;;;;;;;;;;11.42;72.07;97444.83;104514;1257;73878;-64
2023/11/23 21:30:43;;;;;;;10.80;7.40;;;;;;;12.18;71.26;97436.92;104463;1259;62212;-65
2023/11/23 21:33:11;;;;;;;8.60;7.70;;;;;;;11.55;70.73;97440.42;104970;1254;61078;-64
2023/11/23 21:35:39;;;;;;;9.80;7.70;;;;;;;11.50;71.04;97426.78;104302;1253;73293;-64
2023/11/23 21:38:06;;;;;;;9.10;7.80;;;;;;;11.54;70.57;97422.46;104893;1256;69233;-63
2023/11/23 21:40:36;;;;;;;9.90;7.90;;;;;;;11.55;71.25;97416.25;104689;1254;71425;-63
2023/11/23 21:43:04;;;;;;;8.80;7.70;;;;;;;11.53;70.68;97419.89;105094;1254;60954;-64
2023/11/23 21:45:32;;;;;;;9.60;8.10;;;;;;;11.61;70.46;97416.80;104492;1255;60146;-64
2023/11/23 21:48:00;;;;;;;8.50;7.60;;;;;;;11.84;69.96;97413.51;104677;1257;73964;-64
2023/11/23 21:50:28;;;;;;;12.20;8.20;;;;;;;12.09;69.53;97406.48;104892;1260;70546;-64
2023/11/23 21:52:58;;;;;;;8.70;7.80;;;;;;;11.89;69.28;97406.44;104958;1254;72555;-64
2023/11/23 21:55:26;;;;;;;8.60;7.70;;;;;;;11.87;70.16;97394.06;104983;1257;60948;-64
2023/11/23 21:57:54;;;;;;;9.70;8.70;;;;;;;12.03;68.87;97393.48;104814;1257;60459;-65
2023/11/23 22:00:22;;;;;;;9.90;7.40;;;;;;;12.03;68.24;97391.20;105171;1256;73435;-64
2023/11/23 22:02:52;;;;;;;8.70;7.80;;;;;;;12.13;67.60;97378.04;104829;1269;68140;-64
2023/11/23 22:05:20;;;;;;;8.20;7.30;;;;;;;12.22;67.51;97369.20;104763;1268;71791;-64
2023/11/23 22:07:47;;;;;;;;;;;;;;;11.96;68.21;97366.13;104818;1256;60711;-64
2023/11/23 22:10:16;;;;;;;9.40;7.00;;;;;;;11.85;69.28;97362.11;104586;1258;62254;-65
2023/11/23 22:12:45;;;;;;;9.10;7.80;;;;;;;11.90;69.08;97357.71;104601;1261;73932;-65
2023/11/23 22:15:12;;;;;;;7.50;6.70;;;;;;;11.87;70.22;97354.24;105244;1257;69284;-64
2023/11/23 22:17:42;;;;;;;8.10;7.20;;;;;;;11.67;70.78;97353.26;104399;1257;73824;-63
2023/11/23 22:20:11;;;;;;;8.00;7.20;;;;;;;11.74;70.59;97344.29;105224;1254;60957;-64
2023/11/23 22:22:39;;;;;;;8.60;7.50;;;;;;;11.69;69.99;97346.41;104441;1251;60485;-63
2023/11/23 22:25:08;;;;;;;8.60;7.70;;;;;;;11.61;70.16;97344.99;104924;1259;73005;-63
2023/11/23 22:27:36;;;;;;;9.40;8.00;;;;;;;11.68;69.45;97332.86;105080;1256;68084;-64